Time;durP1;ratioP1;P1;durP2;ratioP2;P2;SDS_P1;SDS_P2;PMS_P1;PMS_P2;Temp;Humidity;BMP_temperature;BMP_pressure;BME280_temperature;BME280_humidity;BME280_pressure;Samples;Min_cycle;Max_cycle;Signal;HPM_P1;HPM_P2
2023/12/08 00:01:16;;;;;;;25.50;16.90;;;;;;;;;;4917100;29;20055;-73
2023/12/08 00:03:42;;;;;;;27.10;17.75;;;;;;;;;;4898340;29;20092;-73
2023/12/08 00:06:09;;;;;;;28.10;17.35;;;;;;;;;;4897729;29;20192;-73
2023/12/08 00:08:38;;;;;;;24.85;16.20;;;;;;;;;;4898816;29;20484;-73
2023/12/08 00:11:04;;;;;;;24.98;16.52;;;;;;;;;;4889276;29;20048;-73
2023/12/08 00:13:33;;;;;;;27.25;17.05;;;;;;;;;;4895964;29;20048;-73
2023/12/08 00:15:59;;;;;;;27.88;16.63;;;;;;;;;;4885323;29;20060;-73
2023/12/08 00:18:28;;;;;;;25.33;16.63;;;;;;;;;;4901242;29;20051;-73
2023/12/08 00:20:54;;;;;;;25.92;16.52;;;;;;;;;;4886888;29;20084;-73
2023/12/08 00:23:20;;;;;;;24.60;16.15;;;;;;;;;;4897605;29;20067;-73
2023/12/08 00:25:46;;;;;;;24.45;16.00;;;;;;;;;;4899474;29;20130;-73
2023/12/08 00:28:12;;;;;;;25.83;16.38;;;;;;;;;;4906235;29;20131;-74
2023/12/08 00:30:38;;;;;;;25.13;15.55;;;;;;;;;;4900192;29;20123;-73
2023/12/08 00:33:04;;;;;;;24.67;15.95;;;;;;;;;;4899410;29;20146;-73
2023/12/08 00:35:30;;;;;;;25.25;16.05;;;;;;;;;;4904795;29;20155;-74
2023/12/08 00:37:57;;;;;;;24.73;14.88;;;;;;;;;;4916895;29;20512;-73
2023/12/08 00:40:23;;;;;;;24.23;15.48;;;;;;;;;;4927431;29;20047;-73
2023/12/08 00:42:49;;;;;;;24.40;15.98;;;;;;;;;;4929608;29;20450;-73
2023/12/08 00:45:15;;;;;;;25.30;15.30;;;;;;;;;;4918593;29;20162;-73
2023/12/08 00:47:41;;;;;;;22.27;15.18;;;;;;;;;;4914400;29;20222;-73
2023/12/08 00:50:07;;;;;;;22.50;15.23;;;;;;;;;;4911066;29;20048;-73
2023/12/08 00:52:34;;;;;;;24.17;15.68;;;;;;;;;;4909352;29;20090;-73
2023/12/08 00:55:00;;;;;;;22.75;15.35;;;;;;;;;;4917444;29;20439;-73
2023/12/08 00:57:26;;;;;;;23.25;16.27;;;;;;;;;;4911856;29;20476;-73
2023/12/08 00:59:52;;;;;;;21.10;14.85;;;;;;;;;;4934478;29;20042;-73
2023/12/08 01:02:18;;;;;;;22.58;14.65;;;;;;;;;;4915031;29;20075;-73
2023/12/08 01:04:44;;;;;;;21.85;15.35;;;;;;;;;;4925324;29;20058;-74
2023/12/08 01:07:10;;;;;;;21.30;14.35;;;;;;;;;;4919153;29;20043;-73
2023/12/08 01:09:36;;;;;;;21.70;15.63;;;;;;;;;;4914635;29;20404;-73
2023/12/08 01:12:03;;;;;;;25.02;15.27;;;;;;;;;;4919954;29;20099;-73
2023/12/08 01:14:30;;;;;;;21.83;15.02;;;;;;;;;;4908435;29;20597;-73
2023/12/08 01:16:56;;;;;;;22.50;14.80;;;;;;;;;;4914042;29;20055;-73
2023/12/08 01:19:22;;;;;;;23.13;15.05;;;;;;;;;;4909072;29;20066;-73
2023/12/08 01:21:48;;;;;;;21.67;14.98;;;;;;;;;;4915562;29;20115;-73
2023/12/08 01:24:15;;;;;;;24.58;15.60;;;;;;;;;;4913634;29;20052;-73
2023/12/08 01:26:44;;;;;;;22.90;15.73;;;;;;;;;;4926963;29;20047;-73
2023/12/08 01:29:10;;;;;;;24.48;15.60;;;;;;;;;;4920073;29;20131;-74
2023/12/08 01:31:39;;;;;;;21.15;14.45;;;;;;;;;;4909904;29;20036;-73
2023/12/08 01:34:07;;;;;;;22.58;16.20;;;;;;;;;;4926586;29;20457;-73
2023/12/08 01:36:33;;;;;;;21.63;14.50;;;;;;;;;;4920477;29;20541;-73
2023/12/08 01:38:59;;;;;;;24.35;15.60;;;;;;;;;;4894346;29;20044;-73
2023/12/08 01:41:25;;;;;;;22.60;14.95;;;;;;;;;;4902659;29;20052;-73
2023/12/08 01:43:51;;;;;;;23.58;15.38;;;;;;;;;;4904478;29;20104;-73
2023/12/08 01:46:20;;;;;;;20.10;14.45;;;;;;;;;;4896860;29;20457;-73
2023/12/08 01:48:46;;;;;;;23.45;15.00;;;;;;;;;;4894805;29;20052;-73
2023/12/08 01:51:16;;;;;;;21.90;14.65;;;;;;;;;;4889872;29;20104;-73
2023/12/08 01:53:46;;;;;;;22.08;14.95;;;;;;;;;;4923434;29;20043;-73
2023/12/08 01:56:12;;;;;;;21.65;15.15;;;;;;;;;;4914264;29;20501;-73
2023/12/08 01:58:39;;;;;;;25.08;15.98;;;;;;;;;;4894434;29;20485;-73
2023/12/08 02:01:07;;;;;;;24.45;15.60;;;;;;;;;;4908655;29;20040;-73
2023/12/08 02:03:33;;;;;;;23.88;15.00;;;;;;;;;;4904644;29;20052;-73
2023/12/08 02:06:03;;;;;;;23.88;14.70;;;;;;;;;;4902083;29;20096;-73
2023/12/08 02:08:29;;;;;;;24.42;15.80;;;;;;;;;;4917374;29;20416;-73
2023/12/08 02:10:55;;;;;;;21.95;14.45;;;;;;;;;;4924096;29;20400;-73
2023/12/08 02:13:22;;;;;;;22.83;15.23;;;;;;;;;;4883483;29;20105;-73
2023/12/08 02:15:50;;;;;;;21.95;15.10;;;;;;;;;;4890930;29;21431;-73
2023/12/08 02:18:17;;;;;;;25.67;16.27;;;;;;;;;;4915747;29;20059;-73
2023/12/08 02:20:43;;;;;;;25.20;14.75;;;;;;;;;;4897952;29;20048;-73
2023/12/08 02:23:09;;;;;;;22.65;15.38;;;;;;;;;;4901430;29;20462;-73
2023/12/08 02:25:35;;;;;;;24.83;15.90;;;;;;;;;;4897204;29;20097;-73
2023/12/08 02:28:04;;;;;;;23.70;14.95;;;;;;;;;;4896884;29;20052;-73
2023/12/08 02:30:31;;;;;;;21.92;15.07;;;;;;;;;;4900491;29;20052;-73
2023/12/08 02:33:03;;;;;;;25.30;16.02;;;;;;;;;;4901953;29;20052;-73
2023/12/08 02:35:32;;;;;;;22.95;15.82;;;;;;;;;;4879933;29;20056;-73
2023/12/08 02:37:59;;;;;;;23.02;15.52;;;;;;;;;;4898685;29;20513;-73
2023/12/08 02:40:26;;;;;;;21.50;14.82;;;;;;;;;;4913155;29;20047;-73
2023/12/08 02:42:53;;;;;;;23.73;14.88;;;;;;;;;;4903768;29;20079;-73
2023/12/08 02:45:19;;;;;;;22.40;14.93;;;;;;;;;;4914649;29;20062;-73
2023/12/08 02:47:45;;;;;;;23.10;16.15;;;;;;;;;;4932981;29;20055;-73
2023/12/08 02:50:13;;;;;;;21.25;15.38;;;;;;;;;;4927801;29;20136;-73
2023/12/08 02:52:39;;;;;;;21.80;15.02;;;;;;;;;;4906797;29;20549;-73
2023/12/08 02:55:06;;;;;;;21.70;15.25;;;;;;;;;;4924252;29;20052;-73
2023/12/08 02:57:32;;;;;;;21.80;14.73;;;;;;;;;;4914812;29;20080;-73
2023/12/08 02:59:58;;;;;;;23.25;15.50;;;;;;;;;;4905507;29;20048;-73
2023/12/08 03:02:24;;;;;;;22.73;15.63;;;;;;;;;;4914324;29;20048;-73
2023/12/08 03:04:52;;;;;;;23.60;14.95;;;;;;;;;;4910858;29;20070;-73
2023/12/08 03:07:18;;;;;;;22.05;14.57;;;;;;;;;;4907409;29;20035;-73
2023/12/08 03:09:44;;;;;;;22.77;15.23;;;;;;;;;;4906947;29;20119;-73
2023/12/08 03:12:10;;;;;;;21.60;15.00;;;;;;;;;;4923368;29;20035;-73
2023/12/08 03:14:36;;;;;;;25.30;15.73;;;;;;;;;;4914653;29;20040;-73
2023/12/08 03:17:02;;;;;;;22.17;14.75;;;;;;;;;;4914536;29;20377;-73
2023/12/08 03:19:28;;;;;;;24.17;16.48;;;;;;;;;;4923923;29;20118;-73
2023/12/08 03:21:54;;;;;;;22.70;15.48;;;;;;;;;;4932850;29;20432;-73
2023/12/08 03:24:20;;;;;;;22.35;15.02;;;;;;;;;;4906076;29;20058;-73
2023/12/08 03:26:46;;;;;;;22.58;15.68;;;;;;;;;;4930755;29;20043;-74
2023/12/08 03:29:15;;;;;;;24.88;15.57;;;;;;;;;;4953151;29;20059;-73
2023/12/08 03:31:41;;;;;;;22.58;15.32;;;;;;;;;;4936976;29;20048;-73
2023/12/08 03:34:07;;;;;;;23.95;15.68;;;;;;;;;;4915876;29;20054;-73
2023/12/08 03:36:34;;;;;;;22.58;14.70;;;;;;;;;;4913097;29;20067;-73
2023/12/08 03:39:00;;;;;;;23.35;15.32;;;;;;;;;;4909300;29;20071;-73
2023/12/08 03:41:26;;;;;;;25.38;16.00;;;;;;;;;;4908334;29;20492;-73
2023/12/08 03:43:52;;;;;;;23.90;15.43;;;;;;;;;;4909679;29;22151;-73
2023/12/08 03:46:18;;;;;;;24.65;17.42;;;;;;;;;;4909601;29;20487;-73
2023/12/08 03:48:44;;;;;;;25.13;16.45;;;;;;;;;;4909270;29;20046;-73
2023/12/08 03:51:11;;;;;;;26.23;15.98;;;;;;;;;;4919632;29;20061;-73
2023/12/08 03:53:37;;;;;;;24.42;15.88;;;;;;;;;;4937535;28;20063;-73
2023/12/08 03:56:03;;;;;;;25.08;16.98;;;;;;;;;;4940511;29;20095;-73
2023/12/08 03:58:29;;;;;;;27.50;16.98;;;;;;;;;;4933528;29;20071;-73
2023/12/08 04:00:55;;;;;;;24.20;16.13;;;;;;;;;;4940198;29;20343;-73
2023/12/08 04:03:24;;;;;;;27.48;17.20;;;;;;;;;;4911536;29;20047;-73
2023/12/08 04:05:50;;;;;;;24.80;16.38;;;;;;;;;;4932559;29;20047;-73
2023/12/08 04:08:17;;;;;;;26.50;16.55;;;;;;;;;;4922088;29;20052;-73
2023/12/08 04:10:43;;;;;;;25.50;16.45;;;;;;;;;;4918660;29;20460;-73
2023/12/08 04:13:09;;;;;;;24.30;16.55;;;;;;;;;;4913827;29;20134;-73
2023/12/08 04:15:35;;;;;;;26.50;17.77;;;;;;;;;;4911299;29;20485;-73
2023/12/08 04:18:01;;;;;;;25.70;17.30;;;;;;;;;;4911330;29;20467;-73
2023/12/08 04:20:27;;;;;;;28.38;16.92;;;;;;;;;;4934696;29;20046;-73
2023/12/08 04:22:53;;;;;;;27.23;17.23;;;;;;;;;;4910162;29;20155;-73
2023/12/08 04:25:19;;;;;;;26.02;16.55;;;;;;;;;;4910182;29;20055;-73
2023/12/08 04:27:46;;;;;;;25.50;16.80;;;;;;;;;;4907542;29;20056;-73
2023/12/08 04:30:14;;;;;;;28.40;18.30;;;;;;;;;;4912865;29;20058;-73
2023/12/08 04:32:40;;;;;;;28.02;17.50;;;;;;;;;;4913486;29;20543;-73
2023/12/08 04:35:07;;;;;;;27.85;17.45;;;;;;;;;;4911720;29;20116;-73
2023/12/08 04:37:33;;;;;;;25.65;17.02;;;;;;;;;;4912631;29;20526;-73
2023/12/08 04:39:59;;;;;;;28.75;18.35;;;;;;;;;;4914835;29;20045;-73
2023/12/08 04:42:25;;;;;;;25.08;16.52;;;;;;;;;;4914333;29;20474;-73
2023/12/08 04:44:51;;;;;;;29.70;18.15;;;;;;;;;;4913077;29;20054;-73
2023/12/08 04:47:20;;;;;;;26.67;18.33;;;;;;;;;;4939689;29;20039;-73
2023/12/08 04:49:46;;;;;;;30.73;18.15;;;;;;;;;;4943538;29;20062;-73
2023/12/08 04:52:12;;;;;;;27.85;17.45;;;;;;;;;;4911963;29;20484;-73
2023/12/08 04:54:38;;;;;;;26.35;17.00;;;;;;;;;;4917590;29;20044;-73
2023/12/08 04:57:04;;;;;;;28.60;18.73;;;;;;;;;;4913520;29;20051;-73
2023/12/08 04:59:30;;;;;;;27.83;18.85;;;;;;;;;;4925601;29;20138;-73
2023/12/08 05:01:58;;;;;;;32.00;20.08;;;;;;;;;;4916616;29;20056;-73
2023/12/08 05:04:24;;;;;;;26.27;17.50;;;;;;;;;;4919502;29;20059;-73
2023/12/08 05:06:50;;;;;;;26.98;16.98;;;;;;;;;;4933924;29;20043;-73
2023/12/08 05:09:16;;;;;;;29.58;18.73;;;;;;;;;;4911356;29;20055;-73
2023/12/08 05:11:42;;;;;;;29.40;18.17;;;;;;;;;;4918453;29;20205;-73
2023/12/08 05:14:08;;;;;;;28.90;18.80;;;;;;;;;;4904944;29;20050;-73
2023/12/08 05:16:34;;;;;;;28.90;17.50;;;;;;;;;;4936047;29;20052;-73
2023/12/08 05:19:00;;;;;;;28.85;17.77;;;;;;;;;;4912793;29;20377;-73
2023/12/08 05:21:30;;;;;;;29.58;19.17;;;;;;;;;;4914652;29;20408;-73
2023/12/08 05:23:56;;;;;;;29.15;18.45;;;;;;;;;;4915192;29;20044;-73
2023/12/08 05:26:23;;;;;;;27.98;17.98;;;;;;;;;;4919038;29;20086;-73
2023/12/08 05:28:49;;;;;;;30.33;19.00;;;;;;;;;;4917068;29;20107;-72
2023/12/08 05:31:18;;;;;;;28.45;18.95;;;;;;;;;;4911941;29;20044;-73
2023/12/08 05:33:44;;;;;;;31.33;19.60;;;;;;;;;;4914978;29;20043;-73
2023/12/08 05:36:13;;;;;;;32.67;19.30;;;;;;;;;;4936266;29;20056;-73
2023/12/08 05:38:39;;;;;;;32.22;19.42;;;;;;;;;;4931599;29;20043;-73
2023/12/08 05:41:05;;;;;;;31.70;19.63;;;;;;;;;;4924805;29;20127;-73
2023/12/08 05:43:31;;;;;;;31.60;19.85;;;;;;;;;;4910163;29;20127;-73
2023/12/08 05:45:57;;;;;;;27.83;18.42;;;;;;;;;;4914261;29;20139;-73
2023/12/08 05:48:23;;;;;;;31.35;19.60;;;;;;;;;;4914750;29;20147;-73
2023/12/08 05:50:49;;;;;;;29.67;18.90;;;;;;;;;;4915351;29;20104;-73
2023/12/08 05:53:15;;;;;;;29.05;18.80;;;;;;;;;;4933601;29;20043;-73
2023/12/08 05:55:41;;;;;;;34.03;19.88;;;;;;;;;;4905570;29;20064;-72
2023/12/08 05:58:07;;;;;;;33.72;19.13;;;;;;;;;;4902162;29;20048;-73
2023/12/08 06:00:33;;;;;;;30.95;19.63;;;;;;;;;;4925952;29;20119;-73
2023/12/08 06:02:59;;;;;;;29.02;19.05;;;;;;;;;;4914848;29;20047;-73
2023/12/08 06:05:25;;;;;;;32.35;20.67;;;;;;;;;;4910825;29;20088;-73
2023/12/08 06:07:51;;;;;;;31.25;19.90;;;;;;;;;;4913145;29;20456;-73
2023/12/08 06:10:17;;;;;;;29.10;19.70;;;;;;;;;;4912517;29;20504;-73
2023/12/08 06:12:43;;;;;;;35.65;22.15;;;;;;;;;;4914037;29;20050;-73
2023/12/08 06:15:10;;;;;;;35.05;21.77;;;;;;;;;;4909674;29;20043;-73
2023/12/08 06:17:37;;;;;;;30.45;19.42;;;;;;;;;;4911247;29;20039;-73
2023/12/08 06:20:10;;;;;;;34.17;20.05;;;;;;;;;;4938273;29;20047;-73
2023/12/08 06:22:36;;;;;;;32.00;20.63;;;;;;;;;;4935205;29;20411;-73
2023/12/08 06:25:02;;;;;;;35.22;21.42;;;;;;;;;;4912260;29;20111;-73
2023/12/08 06:27:28;;;;;;;33.30;20.58;;;;;;;;;;4903251;29;20047;-73
2023/12/08 06:29:54;;;;;;;35.83;21.65;;;;;;;;;;4936966;28;20488;-73
2023/12/08 06:32:20;;;;;;;34.97;21.33;;;;;;;;;;4908996;29;20059;-73
2023/12/08 06:34:46;;;;;;;36.42;21.02;;;;;;;;;;4908668;29;20043;-72
2023/12/08 06:37:13;;;;;;;34.00;21.75;;;;;;;;;;4903308;29;20044;-73
2023/12/08 06:39:42;;;;;;;33.42;21.33;;;;;;;;;;4929197;29;20138;-72
2023/12/08 06:42:08;;;;;;;37.03;22.65;;;;;;;;;;4905866;29;20043;-72
2023/12/08 06:44:34;;;;;;;34.47;21.65;;;;;;;;;;4907352;29;20486;-72
2023/12/08 06:47:00;;;;;;;32.85;21.52;;;;;;;;;;4910365;29;20036;-72
2023/12/08 06:49:26;;;;;;;35.35;21.88;;;;;;;;;;4905822;29;20064;-72
2023/12/08 06:51:52;;;;;;;32.90;20.35;;;;;;;;;;4905204;29;20108;-73
2023/12/08 06:54:24;;;;;;;36.20;21.15;;;;;;;;;;4909242;29;20044;-73
2023/12/08 06:56:50;;;;;;;34.00;21.05;;;;;;;;;;4906603;29;20046;-73
2023/12/08 06:59:16;;;;;;;34.88;21.15;;;;;;;;;;4902587;29;20047;-73
2023/12/08 07:01:42;;;;;;;36.00;21.45;;;;;;;;;;4910386;29;20382;-73
2023/12/08 07:04:09;;;;;;;34.75;21.30;;;;;;;;;;4904787;29;20051;-73
2023/12/08 07:06:35;;;;;;;37.63;21.42;;;;;;;;;;4918040;29;20063;-73
2023/12/08 07:09:01;;;;;;;39.38;22.10;;;;;;;;;;4920649;29;20507;-73
2023/12/08 07:11:27;;;;;;;36.25;21.45;;;;;;;;;;4931718;28;20495;-73
2023/12/08 07:13:53;;;;;;;32.63;20.38;;;;;;;;;;4929259;29;20480;-73
2023/12/08 07:16:19;;;;;;;34.38;21.65;;;;;;;;;;4909872;29;20441;-73
2023/12/08 07:18:45;;;;;;;35.10;20.75;;;;;;;;;;4918311;29;20490;-73
2023/12/08 07:21:12;;;;;;;33.92;21.20;;;;;;;;;;4909937;29;20066;-73
2023/12/08 07:23:38;;;;;;;36.13;22.70;;;;;;;;;;4903651;29;20048;-73
2023/12/08 07:26:04;;;;;;;37.50;22.65;;;;;;;;;;4932149;29;20055;-73
2023/12/08 07:28:30;;;;;;;33.53;21.45;;;;;;;;;;4945523;29;20055;-73
2023/12/08 07:30:57;;;;;;;37.08;21.83;;;;;;;;;;4904712;29;20088;-73
2023/12/08 07:33:23;;;;;;;37.17;21.55;;;;;;;;;;4908318;29;23035;-73
2023/12/08 07:35:49;;;;;;;35.40;22.30;;;;;;;;;;4910761;29;20547;-73
2023/12/08 07:38:15;;;;;;;37.17;21.95;;;;;;;;;;4918636;29;20056;-73
2023/12/08 07:40:41;;;;;;;34.80;22.02;;;;;;;;;;4911693;29;20058;-73
2023/12/08 07:43:07;;;;;;;36.25;22.25;;;;;;;;;;4911455;29;20497;-73
2023/12/08 07:45:33;;;;;;;39.22;22.95;;;;;;;;;;4909270;29;20056;-73
2023/12/08 07:47:59;;;;;;;32.60;20.67;;;;;;;;;;4905585;29;20070;-73
2023/12/08 07:50:26;;;;;;;40.58;22.92;;;;;;;;;;4911220;29;20054;-73
2023/12/08 07:52:52;;;;;;;39.85;22.30;;;;;;;;;;4907541;29;20052;-73
2023/12/08 07:55:21;;;;;;;39.50;23.05;;;;;;;;;;4906428;29;20433;-73
2023/12/08 07:57:47;;;;;;;37.58;22.65;;;;;;;;;;4902470;29;20050;-72
2023/12/08 08:00:16;;;;;;;34.35;22.35;;;;;;;;;;4907823;29;20191;-72
2023/12/08 08:02:43;;;;;;;36.72;22.65;;;;;;;;;;4913733;29;20381;-74
2023/12/08 08:05:09;;;;;;;38.72;22.95;;;;;;;;;;4916482;29;20039;-73
2023/12/08 08:07:35;;;;;;;37.42;22.88;;;;;;;;;;4929703;29;20052;-73
2023/12/08 08:10:02;;;;;;;35.65;21.98;;;;;;;;;;4928712;29;20171;-72
2023/12/08 08:12:31;;;;;;;36.75;21.98;;;;;;;;;;4912301;29;20460;-72
2023/12/08 08:14:57;;;;;;;36.47;21.73;;;;;;;;;;4913660;29;20047;-72
2023/12/08 08:17:23;;;;;;;35.63;22.08;;;;;;;;;;4911199;29;20043;-72
2023/12/08 08:19:49;;;;;;;37.50;23.35;;;;;;;;;;4933836;29;20052;-72
2023/12/08 08:22:16;;;;;;;36.80;23.20;;;;;;;;;;4911702;29;20404;-72
2023/12/08 08:24:42;;;;;;;39.13;23.02;;;;;;;;;;4913425;29;20070;-72
2023/12/08 08:27:14;;;;;;;36.03;22.23;;;;;;;;;;4905753;29;20044;-72
2023/12/08 08:29:41;;;;;;;39.75;23.38;;;;;;;;;;4914532;29;20058;-72
2023/12/08 08:32:07;;;;;;;35.67;22.92;;;;;;;;;;4919634;29;20138;-72
2023/12/08 08:34:33;;;;;;;39.38;22.33;;;;;;;;;;4913285;29;20064;-72
2023/12/08 08:36:59;;;;;;;38.63;23.52;;;;;;;;;;4919054;29;20073;-72
2023/12/08 08:39:25;;;;;;;39.85;23.65;;;;;;;;;;4915731;29;20067;-72
2023/12/08 08:41:52;;;;;;;39.63;23.33;;;;;;;;;;4918777;29;20048;-72
2023/12/08 08:44:18;;;;;;;39.35;22.77;;;;;;;;;;4919825;29;20071;-72
2023/12/08 08:46:44;;;;;;;38.13;22.05;;;;;;;;;;4913606;29;20193;-72
2023/12/08 08:49:10;;;;;;;40.30;22.38;;;;;;;;;;4920568;29;20046;-72
2023/12/08 08:51:38;;;;;;;40.00;23.67;;;;;;;;;;4915286;29;20107;-72
2023/12/08 08:54:04;;;;;;;34.63;22.00;;;;;;;;;;4920669;29;20407;-72
2023/12/08 08:56:30;;;;;;;36.47;22.00;;;;;;;;;;4917503;29;20483;-72
2023/12/08 08:58:56;;;;;;;39.50;23.67;;;;;;;;;;4919913;29;20503;-72
2023/12/08 09:01:23;;;;;;;38.40;22.95;;;;;;;;;;4937054;29;20123;-72
2023/12/08 09:03:49;;;;;;;39.67;22.52;;;;;;;;;;4922175;29;20102;-72
2023/12/08 09:06:15;;;;;;;39.55;23.15;;;;;;;;;;4916533;29;20148;-72
2023/12/08 09:08:47;;;;;;;41.50;24.25;;;;;;;;;;4936353;29;20044;-72
2023/12/08 09:11:13;;;;;;;41.78;23.40;;;;;;;;;;4912507;29;20040;-72
2023/12/08 09:13:39;;;;;;;39.00;23.58;;;;;;;;;;4916345;29;20047;-72
2023/12/08 09:16:05;;;;;;;36.90;23.15;;;;;;;;;;4909998;29;20059;-72
2023/12/08 09:18:32;;;;;;;37.30;22.15;;;;;;;;;;4916841;29;20048;-72
2023/12/08 09:20:58;;;;;;;37.03;22.55;;;;;;;;;;4901901;29;20056;-72
2023/12/08 09:23:24;;;;;;;37.05;21.80;;;;;;;;;;4906025;29;20051;-72
2023/12/08 09:25:50;;;;;;;35.28;21.90;;;;;;;;;;4900042;29;20079;-72
2023/12/08 09:28:17;;;;;;;39.47;22.60;;;;;;;;;;4900138;29;20059;-73
2023/12/08 09:30:43;;;;;;;36.88;21.65;;;;;;;;;;4900276;29;20060;-72
2023/12/08 09:33:09;;;;;;;40.15;23.60;;;;;;;;;;4900851;29;20055;-72
2023/12/08 09:35:35;;;;;;;38.00;22.95;;;;;;;;;;4935956;29;20079;-73
2023/12/08 09:38:03;;;;;;;36.45;22.58;;;;;;;;;;4920095;29;20051;-72
2023/12/08 09:40:29;;;;;;;36.60;22.73;;;;;;;;;;4911703;29;20089;-72
2023/12/08 09:42:57;;;;;;;39.88;23.70;;;;;;;;;;4914312;29;20377;-72
2023/12/08 09:45:23;;;;;;;37.33;23.77;;;;;;;;;;4914979;29;20448;-72
2023/12/08 09:47:53;;;;;;;40.35;23.08;;;;;;;;;;4915875;29;20055;-72
2023/12/08 09:50:19;;;;;;;38.17;23.95;;;;;;;;;;4911835;29;20040;-72
2023/12/08 09:52:46;;;;;;;38.20;24.02;;;;;;;;;;4913998;29;20079;-72
2023/12/08 09:55:13;;;;;;;39.92;22.38;;;;;;;;;;4918556;29;20098;-73
2023/12/08 09:57:44;;;;;;;39.97;23.67;;;;;;;;;;4910119;29;20079;-72
2023/12/08 10:00:13;;;;;;;41.63;23.85;;;;;;;;;;4911466;29;20115;-72
2023/12/08 10:02:40;;;;;;;38.38;22.85;;;;;;;;;;4911782;29;20507;-72
2023/12/08 10:05:07;;;;;;;42.72;23.83;;;;;;;;;;4912167;29;20052;-72
2023/12/08 10:07:33;;;;;;;39.88;22.48;;;;;;;;;;4916113;29;20062;-73
2023/12/08 10:10:00;;;;;;;41.28;24.58;;;;;;;;;;4915825;29;20123;-72
2023/12/08 10:12:26;;;;;;;42.72;24.05;;;;;;;;;;4909348;29;20043;-72
2023/12/08 10:14:52;;;;;;;38.95;22.55;;;;;;;;;;4914973;29;20095;-72
2023/12/08 10:17:18;;;;;;;40.75;25.20;;;;;;;;;;4906299;29;20055;-72
2023/12/08 10:19:44;;;;;;;41.50;24.13;;;;;;;;;;4904421;29;20119;-72
2023/12/08 10:22:10;;;;;;;39.65;23.50;;;;;;;;;;4914524;29;20040;-72
2023/12/08 10:24:36;;;;;;;56.25;34.40;;;;;;;;;;4917277;29;20052;-72
2023/12/08 10:27:03;;;;;;;54.17;34.00;;;;;;;;;;4914361;29;20135;-72
2023/12/08 10:29:33;;;;;;;43.50;24.98;;;;;;;;;;4933305;29;20195;-72
2023/12/08 10:31:59;;;;;;;49.65;31.23;;;;;;;;;;4913574;29;20079;-72
2023/12/08 10:34:25;;;;;;;47.10;31.10;;;;;;;;;;4917168;29;20099;-72
2023/12/08 10:36:52;;;;;;;47.22;32.55;;;;;;;;;;4913383;29;20066;-72
2023/12/08 10:39:19;;;;;;;53.75;36.15;;;;;;;;;;4911309;29;20051;-72
2023/12/08 10:41:48;;;;;;;52.38;29.88;;;;;;;;;;4913481;29;20414;-72
2023/12/08 10:44:14;;;;;;;51.90;31.95;;;;;;;;;;4913711;29;20118;-72
2023/12/08 10:46:40;;;;;;;43.75;25.35;;;;;;;;;;4908208;29;20070;-72
2023/12/08 10:49:08;;;;;;;60.38;34.72;;;;;;;;;;4941345;29;20181;-72
2023/12/08 10:51:35;;;;;;;44.75;27.67;;;;;;;;;;4922767;29;20052;-72
2023/12/08 10:54:01;;;;;;;47.97;26.50;;;;;;;;;;4935529;29;20054;-73
2023/12/08 10:56:28;;;;;;;52.38;31.52;;;;;;;;;;4912172;29;20107;-72
2023/12/08 10:58:59;;;;;;;49.75;28.63;;;;;;;;;;4913794;29;20051;-72
2023/12/08 11:01:29;;;;;;;53.08;28.30;;;;;;;;;;4909157;29;20094;-72
2023/12/08 11:03:58;;;;;;;53.60;28.02;;;;;;;;;;4911733;29;20054;-73
2023/12/08 11:06:33;;;;;;;43.30;26.45;;;;;;;;;;4913168;29;20108;-73
2023/12/08 11:09:01;;;;;;;49.13;27.15;;;;;;;;;;4897360;29;20084;-72
2023/12/08 11:11:29;;;;;;;52.25;28.33;;;;;;;;;;4905228;29;20055;-72
2023/12/08 11:14:05;;;;;;;47.83;27.60;;;;;;;;;;4915418;29;20051;-72
2023/12/08 11:16:37;;;;;;;51.60;27.83;;;;;;;;;;4929606;29;20141;-72
2023/12/08 11:19:05;;;;;;;52.85;26.45;;;;;;;;;;4924538;29;20158;-72
2023/12/08 11:21:31;;;;;;;52.60;26.52;;;;;;;;;;4911293;29;20076;-72
2023/12/08 11:23:57;;;;;;;47.33;27.13;;;;;;;;;;4905270;29;20095;-72
2023/12/08 11:26:30;;;;;;;50.72;26.10;;;;;;;;;;4909460;29;20054;-72
2023/12/08 11:29:13;;;;;;;50.58;27.05;;;;;;;;;;4908405;29;20091;-72
2023/12/08 11:31:54;;;;;;;53.72;29.98;;;;;;;;;;4909998;29;20385;-73
2023/12/08 11:34:24;;;;;;;51.35;27.50;;;;;;;;;;4913186;29;20052;-72
2023/12/08 11:36:53;;;;;;;56.15;27.00;;;;;;;;;;4936972;29;20055;-71
2023/12/08 11:39:37;;;;;;;57.08;29.45;;;;;;;;;;4919771;29;20050;-72
2023/12/08 11:42:04;;;;;;;55.72;28.20;;;;;;;;;;4914758;29;20138;-72
2023/12/08 11:44:34;;;;;;;54.83;27.75;;;;;;;;;;4916107;29;20044;-72
2023/12/08 11:47:00;;;;;;;47.95;26.00;;;;;;;;;;4913315;29;20040;-72
2023/12/08 11:49:29;;;;;;;55.72;28.70;;;;;;;;;;4914847;29;20044;-72
2023/12/08 11:52:13;;;;;;;64.32;30.67;;;;;;;;;;4935005;29;20126;-72
2023/12/08 11:55:05;;;;;;;53.83;28.35;;;;;;;;;;4914739;29;20056;-72
2023/12/08 11:57:36;;;;;;;56.40;27.05;;;;;;;;;;4916407;29;20366;-73
2023/12/08 12:00:04;;;;;;;60.13;27.30;;;;;;;;;;4919073;29;20455;-72
2023/12/08 12:02:38;;;;;;;60.22;27.42;;;;;;;;;;4915279;29;20058;-72
2023/12/08 12:05:04;;;;;;;55.58;27.48;;;;;;;;;;4913664;29;20054;-72
2023/12/08 12:07:30;;;;;;;53.00;28.63;;;;;;;;;;4912083;29;20036;-73
2023/12/08 12:09:56;;;;;;;49.95;26.98;;;;;;;;;;4915741;29;20043;-72
2023/12/08 12:12:30;;;;;;;54.53;27.38;;;;;;;;;;4914839;29;20432;-72
2023/12/08 12:14:57;;;;;;;52.70;27.73;;;;;;;;;;4915109;29;20047;-72
2023/12/08 12:17:24;;;;;;;55.47;28.27;;;;;;;;;;4909202;29;20048;-72
2023/12/08 12:19:50;;;;;;;49.78;26.33;;;;;;;;;;4910950;29;20055;-72
2023/12/08 12:22:17;;;;;;;49.42;27.35;;;;;;;;;;4915424;29;20068;-72
2023/12/08 12:24:43;;;;;;;49.42;26.38;;;;;;;;;;4913860;29;20047;-72
2023/12/08 12:27:09;;;;;;;49.55;26.85;;;;;;;;;;4910173;29;20131;-72
2023/12/08 12:29:35;;;;;;;49.67;27.35;;;;;;;;;;4914218;29;20043;-72
2023/12/08 12:32:03;;;;;;;53.47;26.35;;;;;;;;;;4924185;29;20044;-72
2023/12/08 12:34:29;;;;;;;50.60;25.88;;;;;;;;;;4916662;29;20075;-72
2023/12/08 12:36:55;;;;;;;55.55;26.38;;;;;;;;;;4912912;29;20118;-72
2023/12/08 12:39:23;;;;;;;50.28;26.42;;;;;;;;;;4912136;29;20047;-72
2023/12/08 12:41:49;;;;;;;53.08;27.05;;;;;;;;;;4916697;29;20060;-72
2023/12/08 12:44:16;;;;;;;52.17;26.48;;;;;;;;;;4911964;29;20051;-72
2023/12/08 12:46:42;;;;;;;56.13;26.52;;;;;;;;;;4913623;29;20047;-72
2023/12/08 12:49:16;;;;;;;62.45;27.08;;;;;;;;;;4915880;29;20392;-72
2023/12/08 12:51:43;;;;;;;60.30;28.15;;;;;;;;;;4907067;29;20151;-72
2023/12/08 12:54:09;;;;;;;68.00;28.17;;;;;;;;;;4912742;29;20043;-72
2023/12/08 12:56:39;;;;;;;58.78;27.42;;;;;;;;;;4914682;29;20043;-72
2023/12/08 12:59:11;;;;;;;61.92;25.60;;;;;;;;;;4912448;29;20071;-72
2023/12/08 13:01:37;;;;;;;59.92;27.02;;;;;;;;;;4913011;29;20407;-72
2023/12/08 13:04:04;;;;;;;65.72;28.88;;;;;;;;;;4920010;29;20044;-72
2023/12/08 13:06:32;;;;;;;56.40;28.10;;;;;;;;;;4914870;29;20056;-72
2023/12/08 13:09:03;;;;;;;62.30;27.70;;;;;;;;;;4912833;29;20400;-72
2023/12/08 13:11:29;;;;;;;64.18;27.27;;;;;;;;;;4912121;29;20062;-72
2023/12/08 13:13:56;;;;;;;65.78;27.63;;;;;;;;;;4909545;29;20197;-72
2023/12/08 13:16:23;;;;;;;67.32;29.63;;;;;;;;;;4912902;29;20515;-71
2023/12/08 13:18:49;;;;;;;64.03;28.02;;;;;;;;;;4911216;29;20515;-71
2023/12/08 13:21:15;;;;;;;68.47;29.05;;;;;;;;;;4914554;29;20059;-72
2023/12/08 13:23:47;;;;;;;68.47;29.65;;;;;;;;;;4910253;29;20047;-72
2023/12/08 13:26:13;;;;;;;63.72;29.17;;;;;;;;;;4912365;29;20142;-72
2023/12/08 13:28:39;;;;;;;62.63;27.92;;;;;;;;;;4914844;29;20126;-72
2023/12/08 13:31:05;;;;;;;64.68;27.35;;;;;;;;;;4913967;29;20135;-72
2023/12/08 13:33:31;;;;;;;72.32;30.60;;;;;;;;;;4913989;29;20476;-72
2023/12/08 13:35:57;;;;;;;76.05;30.30;;;;;;;;;;4912287;29;20496;-72
2023/12/08 13:38:23;;;;;;;86.70;33.65;;;;;;;;;;4904491;29;20044;-72
2023/12/08 13:40:50;;;;;;;72.95;31.38;;;;;;;;;;4914318;29;20047;-72
2023/12/08 13:43:16;;;;;;;75.70;31.02;;;;;;;;;;4911500;29;20083;-72
2023/12/08 13:45:42;;;;;;;103.65;53.00;;;;;;;;;;4906692;29;20119;-72
2023/12/08 13:48:08;;;;;;;78.53;34.53;;;;;;;;;;4913595;29;20035;-72
2023/12/08 13:50:40;;;;;;;72.22;31.35;;;;;;;;;;4909697;29;20508;-73
2023/12/08 13:53:06;;;;;;;71.88;31.65;;;;;;;;;;4915430;29;20658;-73
2023/12/08 13:55:32;;;;;;;67.30;30.25;;;;;;;;;;4914548;29;20135;-72
2023/12/08 13:57:59;;;;;;;75.85;30.35;;;;;;;;;;4915747;29;20194;-72
2023/12/08 14:00:26;;;;;;;80.80;29.42;;;;;;;;;;4913707;29;20052;-72
2023/12/08 14:02:52;;;;;;;93.47;30.13;;;;;;;;;;4916275;29;20107;-73
2023/12/08 14:05:18;;;;;;;75.72;30.38;;;;;;;;;;4931236;29;20208;-72
2023/12/08 14:07:45;;;;;;;74.90;30.60;;;;;;;;;;4929374;29;20084;-73
2023/12/08 14:10:11;;;;;;;69.45;31.02;;;;;;;;;;4931694;29;20048;-72
2023/12/08 14:12:37;;;;;;;78.88;31.77;;;;;;;;;;4923354;29;20139;-72
2023/12/08 14:15:04;;;;;;;85.72;31.38;;;;;;;;;;4911283;29;20047;-72